createdAt,value
2022-09-09T00:01:25.553Z,13.68
2022-09-09T00:04:05.021Z,17.42
2022-09-09T00:06:39.578Z,21.63
2022-09-09T00:09:19.538Z,14.05
2022-09-09T00:11:57.689Z,13.15
2022-09-09T00:14:38.702Z,12.52
2022-09-09T00:17:14.339Z,17.38
2022-09-09T00:19:51.637Z,10.20
2022-09-09T00:22:24.829Z,12.45
2022-09-09T00:24:57.690Z,13.77
2022-09-09T00:27:48.024Z,13.98
2022-09-09T00:30:23.867Z,13.27
2022-09-09T00:33:01.017Z,12.73
2022-09-09T00:35:32.709Z,13.25
2022-09-09T00:38:08.209Z,12.05
2022-09-09T00:41:12.484Z,13.15
2022-09-09T00:43:42.612Z,14.20
2022-09-09T00:46:15.915Z,11.90
2022-09-09T00:48:56.208Z,11.52
2022-09-09T00:51:51.594Z,13.70
2022-09-09T00:54:38.016Z,12.07
2022-09-09T00:57:16.199Z,13.93
2022-09-09T00:59:53.797Z,17.38
2022-09-09T01:02:40.451Z,14.90
2022-09-09T01:05:25.959Z,13.52
2022-09-09T01:07:58.246Z,14.23
2022-09-09T01:10:57.497Z,13.18
2022-09-09T01:13:37.379Z,10.20
2022-09-09T01:16:13.032Z,12.07
2022-09-09T01:18:48.022Z,18.98
2022-09-09T01:21:46.001Z,11.52
2022-09-09T01:24:42.399Z,14.80
2022-09-09T01:27:19.157Z,13.77
2022-09-09T01:29:50.957Z,11.02
2022-09-09T01:32:48.609Z,15.15
2022-09-09T01:35:46.814Z,13.77
2022-09-09T01:38:15.864Z,14.65
2022-09-09T01:40:43.541Z,13.43
2022-09-09T01:43:10.914Z,12.02
2022-09-09T01:45:40.573Z,14.15
2022-09-09T01:48:08.298Z,11.02
2022-09-09T01:50:47.530Z,15.95
2022-09-09T01:53:18.486Z,18.23
2022-09-09T01:56:17.523Z,12.48
2022-09-09T01:59:10.100Z,11.88
2022-09-09T02:01:44.112Z,17.15
2022-09-09T02:04:46.833Z,11.80
2022-09-09T02:07:39.563Z,11.40
2022-09-09T02:10:22.337Z,13.95
2022-09-09T02:13:08.655Z,11.95
2022-09-09T02:15:53.761Z,10.10
2022-09-09T02:18:28.088Z,13.27
2022-09-09T02:20:59.023Z,13.95
2022-09-09T02:23:26.830Z,13.00
2022-09-09T02:25:57.708Z,13.50
2022-09-09T02:28:29.525Z,12.05
2022-09-09T02:30:57.624Z,10.73
2022-09-09T02:33:38.535Z,14.13
2022-09-09T02:36:11.170Z,13.88
2022-09-09T02:38:45.014Z,10.90
2022-09-09T02:41:15.351Z,12.32
2022-09-09T02:43:45.630Z,10.52
2022-09-09T02:46:42.011Z,11.52
2022-09-09T02:49:34.319Z,11.43
2022-09-09T02:52:19.880Z,11.02
2022-09-09T02:54:55.988Z,11.60
2022-09-09T02:57:31.556Z,9.50
2022-09-09T03:00:01.597Z,12.70
2022-09-09T03:02:32.873Z,11.40
2022-09-09T03:05:06.454Z,13.77
2022-09-09T03:07:34.791Z,9.45
2022-09-09T03:10:03.844Z,12.43
2022-09-09T03:12:31.127Z,16.58
2022-09-09T03:14:58.534Z,11.93
2022-09-09T03:17:25.957Z,9.82
2022-09-09T03:19:56.296Z,12.70
2022-09-09T03:22:23.611Z,10.68
2022-09-09T03:24:50.965Z,9.48
2022-09-09T03:27:20.744Z,15.60
2022-09-09T03:29:48.397Z,13.68
2022-09-09T03:32:23.759Z,13.68
2022-09-09T03:34:51.363Z,10.98
2022-09-09T03:37:20.142Z,12.57
2022-09-09T03:39:50.570Z,11.07
2022-09-09T03:42:21.719Z,11.60
2022-09-09T03:44:53.138Z,8.65
2022-09-09T03:47:23.808Z,10.88
2022-09-09T03:49:55.501Z,10.45
2022-09-09T03:52:26.177Z,11.13
2022-09-09T03:54:55.482Z,10.90
2022-09-09T03:57:22.936Z,10.07
2022-09-09T03:59:51.161Z,9.40
2022-09-09T04:02:18.506Z,10.68
2022-09-09T04:04:45.776Z,13.32
2022-09-09T04:07:13.178Z,10.98
2022-09-09T04:09:41.363Z,11.77
2022-09-09T04:12:09.378Z,10.13
2022-09-09T04:14:36.735Z,16.55
2022-09-09T04:17:07.525Z,16.63
2022-09-09T04:19:35.249Z,13.02
2022-09-09T04:22:03.384Z,11.13
2022-09-09T04:24:30.713Z,12.43
2022-09-09T04:26:59.855Z,13.27
2022-09-09T04:29:29.057Z,14.02
2022-09-09T04:31:56.627Z,11.05
2022-09-09T04:34:25.355Z,13.65
2022-09-09T04:36:54.254Z,15.35
2022-09-09T04:39:24.496Z,10.93
2022-09-09T04:41:54.572Z,11.80
2022-09-09T04:44:23.278Z,11.77
2022-09-09T04:46:50.908Z,13.60
2022-09-09T04:49:21.041Z,10.18
2022-09-09T04:51:50.594Z,12.48
2022-09-09T04:54:20.240Z,10.32
2022-09-09T04:56:48.905Z,9.95
2022-09-09T04:59:17.197Z,16.88
2022-09-09T05:01:48.103Z,15.43
2022-09-09T05:04:20.248Z,15.07
2022-09-09T05:06:47.616Z,11.43
2022-09-09T05:09:15.255Z,12.73
2022-09-09T05:11:43.120Z,12.40
2022-09-09T05:14:26.394Z,16.35
2022-09-09T05:16:53.883Z,12.00
2022-09-09T05:19:23.643Z,16.67
2022-09-09T05:21:54.454Z,11.15
2022-09-09T05:24:30.635Z,10.57
2022-09-09T05:27:05.746Z,11.10
2022-09-09T05:29:37.006Z,13.60
2022-09-09T05:32:10.603Z,9.82
2022-09-09T05:34:41.006Z,9.90
2022-09-09T05:37:09.080Z,10.40
2022-09-09T05:39:38.337Z,10.65
2022-09-09T05:42:06.403Z,15.73
2022-09-09T05:44:34.502Z,15.07
2022-09-09T05:47:02.864Z,12.02
2022-09-09T05:49:30.386Z,16.52
2022-09-09T05:51:57.829Z,13.48
2022-09-09T05:54:25.312Z,16.02
2022-09-09T05:56:54.907Z,19.65
2022-09-09T05:59:24.453Z,14.32
2022-09-09T06:01:54.440Z,9.98
2022-09-09T06:04:27.465Z,16.95
2022-09-09T06:06:55.033Z,15.27
2022-09-09T06:09:24.224Z,16.63
2022-09-09T06:11:51.855Z,16.25
2022-09-09T06:14:21.751Z,15.85
2022-09-09T06:16:50.925Z,19.42
2022-09-09T06:19:28.295Z,13.48
2022-09-09T06:21:58.303Z,14.43
2022-09-09T06:24:25.896Z,14.02
2022-09-09T06:26:53.503Z,23.27
2022-09-09T06:29:24.494Z,17.80
2022-09-09T06:31:53.335Z,17.73
2022-09-09T06:34:22.981Z,18.50
2022-09-09T06:37:01.263Z,15.60
2022-09-09T06:39:40.445Z,18.38
2022-09-09T06:42:10.107Z,16.77
2022-09-09T06:44:49.348Z,13.90
2022-09-09T06:47:25.841Z,15.70
2022-09-09T06:49:54.429Z,21.80
2022-09-09T06:52:21.935Z,21.27
2022-09-09T06:54:52.127Z,17.40
2022-09-09T06:57:36.495Z,17.95
2022-09-09T07:00:08.502Z,23.08
2022-09-09T07:02:40.306Z,16.58
2022-09-09T07:05:09.961Z,18.17
2022-09-09T07:07:38.043Z,25.15
2022-09-09T07:10:06.768Z,31.75
2022-09-09T07:12:34.604Z,26.30
2022-09-09T07:15:02.060Z,23.52
2022-09-09T07:17:32.693Z,24.73
2022-09-09T07:20:01.047Z,32.42
2022-09-09T07:22:29.821Z,37.08
2022-09-09T07:24:57.741Z,37.97
2022-09-09T07:27:26.146Z,37.67
2022-09-09T07:29:55.490Z,38.28
2022-09-09T07:32:24.794Z,36.40
2022-09-09T07:34:55.009Z,27.10
2022-09-09T07:37:23.467Z,24.92
2022-09-09T07:39:52.350Z,28.52
2022-09-09T07:42:20.692Z,39.17
2022-09-09T07:44:48.587Z,26.98
2022-09-09T07:47:17.463Z,21.48
2022-09-09T07:49:51.005Z,30.70
2022-09-09T07:52:24.940Z,23.73
2022-09-09T07:54:57.768Z,26.83
2022-09-09T07:57:25.270Z,24.25
2022-09-09T07:59:54.088Z,24.90
2022-09-09T08:02:21.983Z,19.20
2022-09-09T08:04:52.848Z,21.40
2022-09-09T08:07:22.763Z,20.05
2022-09-09T08:09:56.923Z,20.65
2022-09-09T08:12:31.837Z,29.73
2022-09-09T08:15:00.186Z,30.38
2022-09-09T08:17:31.597Z,26.50
2022-09-09T08:20:07.071Z,34.17
2022-09-09T08:22:35.689Z,24.98
2022-09-09T08:25:03.531Z,36.33
2022-09-09T08:27:33.428Z,25.70
2022-09-09T08:30:00.964Z,26.02
2022-09-09T08:32:30.526Z,26.08
2022-09-09T08:35:01.071Z,29.15
2022-09-09T08:37:30.288Z,29.45
2022-09-09T08:39:57.889Z,24.92
2022-09-09T08:42:53.327Z,29.67
2022-09-09T08:45:23.478Z,29.27
2022-09-09T08:48:03.539Z,29.20
2022-09-09T08:50:41.611Z,26.38
2022-09-09T08:53:23.873Z,32.63
2022-09-09T08:56:00.500Z,21.83
2022-09-09T08:58:58.544Z,16.80
2022-09-09T09:01:58.174Z,22.38
2022-09-09T09:04:58.008Z,22.73
2022-09-09T09:07:44.088Z,17.40
2022-09-09T09:10:50.494Z,20.10
2022-09-09T09:13:46.098Z,19.50
2022-09-09T09:16:29.733Z,26.88
2022-09-09T09:18:58.328Z,27.70
2022-09-09T09:21:45.217Z,23.75
2022-09-09T09:24:33.749Z,21.27
2022-09-09T09:27:13.335Z,24.65
2022-09-09T09:30:18.133Z,39.80
2022-09-09T09:32:40.673Z,47.10
2022-09-09T09:35:13.668Z,40.38
2022-09-09T09:40:36.741Z,33.75
2022-09-09T09:43:09.913Z,47.88
2022-09-09T09:46:13.864Z,35.55
2022-09-09T09:48:37.364Z,44.83
2022-09-09T09:51:17.069Z,39.50
2022-09-09T09:53:53.605Z,34.25
2022-09-09T09:56:31.551Z,43.70
2022-09-09T09:59:09.298Z,45.63
2022-09-09T10:01:46.848Z,39.60
2022-09-09T10:04:24.471Z,28.85
2022-09-09T10:06:54.898Z,26.70
2022-09-09T10:09:34.636Z,28.60
2022-09-09T10:12:50.473Z,28.80
2022-09-09T10:16:05.183Z,42.97
2022-09-09T10:18:36.621Z,34.58
2022-09-09T10:21:45.242Z,37.13
2022-09-09T10:24:32.708Z,34.10
2022-09-09T10:27:30.332Z,37.05
2022-09-09T10:30:25.831Z,35.85
2022-09-09T10:33:38.614Z,34.55
2022-09-09T10:36:30.144Z,28.15
2022-09-09T10:39:10.406Z,20.80
2022-09-09T10:41:46.923Z,28.20
2022-09-09T10:44:40.013Z,20.83
2022-09-09T10:47:38.293Z,25.90
2022-09-09T10:50:22.371Z,27.88
2022-09-09T10:53:29.592Z,25.48
2022-09-09T10:56:18.006Z,26.05
2022-09-09T10:59:01.044Z,30.35
2022-09-09T11:01:56.821Z,30.52
2022-09-09T11:04:41.441Z,30.83
2022-09-09T11:07:25.985Z,36.10
2022-09-09T11:10:08.529Z,32.65
2022-09-09T11:12:48.239Z,37.00
2022-09-09T11:15:27.936Z,35.30
2022-09-09T11:18:00.399Z,52.63
2022-09-09T11:20:27.973Z,45.35
2022-09-09T11:23:03.626Z,42.63
2022-09-09T11:25:43.225Z,39.20
2022-09-09T11:28:24.705Z,41.65
2022-09-09T11:31:11.251Z,39.67
2022-09-09T11:33:42.422Z,36.88
2022-09-09T11:36:56.884Z,39.85
2022-09-09T11:39:53.506Z,40.53
2022-09-09T11:42:26.740Z,38.58
2022-09-09T11:44:56.267Z,42.53
2022-09-09T11:47:34.827Z,37.33
2022-09-09T11:50:15.881Z,44.17
2022-09-09T11:52:47.252Z,38.80
2022-09-09T11:55:28.863Z,34.17
2022-09-09T11:58:07.002Z,41.83
2022-09-09T12:00:41.056Z,41.17
2022-09-09T12:03:36.384Z,39.65
2022-09-09T12:06:34.728Z,43.92
2022-09-09T12:09:31.445Z,39.05
2022-09-09T12:12:17.174Z,35.00
2022-09-09T12:15:04.457Z,35.22
2022-09-09T12:17:39.836Z,37.53
2022-09-09T12:20:51.597Z,50.67
2022-09-09T12:23:47.390Z,37.92
2022-09-09T12:26:40.800Z,35.70
2022-09-09T12:29:15.417Z,37.90
2022-09-09T12:32:04.907Z,39.80
2022-09-09T12:34:52.182Z,44.72
2022-09-09T12:37:58.377Z,38.80
2022-09-09T12:40:38.867Z,34.75
2022-09-09T12:43:23.083Z,36.78
2022-09-09T12:45:59.162Z,32.80
2022-09-09T12:48:41.512Z,41.10
2022-09-09T12:51:20.834Z,43.17
2022-09-09T12:53:48.638Z,34.55
2022-09-09T12:56:38.019Z,35.28
2022-09-09T12:59:06.433Z,35.20
2022-09-09T13:01:36.232Z,42.72
2022-09-09T13:04:09.431Z,35.33
2022-09-09T13:06:36.924Z,34.28
2022-09-09T13:09:04.561Z,42.40
2022-09-09T13:11:49.277Z,30.70
2022-09-09T13:14:25.268Z,31.00
2022-09-09T13:17:03.800Z,35.05
2022-09-09T13:19:35.129Z,34.97
2022-09-09T13:22:20.388Z,31.05
2022-09-09T13:24:48.113Z,29.80
2022-09-09T13:27:43.995Z,43.35
2022-09-09T13:30:34.879Z,32.08
2022-09-09T13:33:18.567Z,32.55
2022-09-09T13:35:58.480Z,28.88
2022-09-09T13:38:32.437Z,39.10
2022-09-09T13:41:06.116Z,30.30
2022-09-09T13:43:38.730Z,35.10
2022-09-09T13:46:26.760Z,28.42
2022-09-09T13:49:02.943Z,23.27
2022-09-09T13:51:43.468Z,27.35
2022-09-09T13:54:12.117Z,25.85
2022-09-09T13:56:41.008Z,22.70
2022-09-09T13:59:23.174Z,30.10
2022-09-09T14:01:50.491Z,24.80
2022-09-09T14:04:18.493Z,22.17
2022-09-09T14:06:45.976Z,23.17
2022-09-09T14:09:16.752Z,20.35
2022-09-09T14:11:45.262Z,22.92
2022-09-09T14:14:12.864Z,25.20
2022-09-09T14:16:40.174Z,24.17
2022-09-09T14:19:07.473Z,28.52
2022-09-09T14:21:34.753Z,27.50
2022-09-09T14:24:07.287Z,26.15
2022-09-09T14:26:34.790Z,30.75
2022-09-09T14:29:04.785Z,22.70
2022-09-09T14:31:34.703Z,23.23
2022-09-09T14:34:11.589Z,20.50
2022-09-09T14:36:39.353Z,21.38
2022-09-09T14:39:07.039Z,22.77
2022-09-09T14:41:34.404Z,28.63
2022-09-09T14:44:01.861Z,20.90
2022-09-09T14:46:29.754Z,21.90
2022-09-09T14:48:57.573Z,28.52
2022-09-09T14:51:28.391Z,25.08
2022-09-09T14:53:58.381Z,26.77
2022-09-09T14:56:31.268Z,21.13
2022-09-09T14:59:20.415Z,21.23
2022-09-09T15:01:48.196Z,30.17
2022-09-09T15:04:16.014Z,18.95
2022-09-09T15:06:45.685Z,23.27
2022-09-09T15:09:12.987Z,20.00
2022-09-09T15:11:43.269Z,26.65
2022-09-09T15:14:11.230Z,21.55
2022-09-09T15:16:40.954Z,28.67
2022-09-09T15:19:08.610Z,21.98
2022-09-09T15:21:37.458Z,22.17
2022-09-09T15:24:05.755Z,20.98
2022-09-09T15:26:33.507Z,15.70
2022-09-09T15:29:01.274Z,22.38
2022-09-09T15:31:31.869Z,22.95
2022-09-09T15:34:02.173Z,25.33
2022-09-09T15:36:30.898Z,20.00
2022-09-09T15:38:58.276Z,22.95
2022-09-09T15:41:26.903Z,21.42
2022-09-09T15:43:59.888Z,21.88
2022-09-09T15:46:31.919Z,26.30
2022-09-09T15:49:11.658Z,22.77
2022-09-09T15:51:43.960Z,19.92
2022-09-09T15:54:14.933Z,18.92
2022-09-09T15:56:43.104Z,22.55
2022-09-09T15:59:10.899Z,26.08
2022-09-09T16:01:43.516Z,20.77
2022-09-09T16:04:11.731Z,26.13
2022-09-09T16:06:40.341Z,24.48
2022-09-09T16:09:09.453Z,21.95
2022-09-09T16:11:39.217Z,19.98
2022-09-09T16:14:07.826Z,20.05
2022-09-09T16:16:36.393Z,19.50
2022-09-09T16:19:12.824Z,19.85
2022-09-09T16:21:43.191Z,24.88
2022-09-09T16:24:13.505Z,19.55
2022-09-09T16:26:47.596Z,19.30
2022-09-09T16:29:17.079Z,25.63
2022-09-09T16:31:45.732Z,21.52
2022-09-09T16:34:13.490Z,19.27
2022-09-09T16:36:42.520Z,20.92
2022-09-09T16:39:13.276Z,24.75
2022-09-09T16:41:42.131Z,28.08
2022-09-09T16:44:11.361Z,18.30
2022-09-09T16:46:41.242Z,34.67
2022-09-09T16:49:11.443Z,23.10
2022-09-09T16:51:41.859Z,22.83
2022-09-09T16:54:10.792Z,24.83
2022-09-09T16:56:43.710Z,17.88
2022-09-09T16:59:14.448Z,28.83
2022-09-09T17:01:44.427Z,23.92
2022-09-09T17:04:21.589Z,26.38
2022-09-09T17:06:54.263Z,26.40
2022-09-09T17:09:24.032Z,24.83
2022-09-09T17:11:53.428Z,21.05
2022-09-09T17:14:22.506Z,29.40
2022-09-09T17:16:50.419Z,24.58
2022-09-09T17:19:18.193Z,24.80
2022-09-09T17:22:15.444Z,20.40
2022-09-09T17:24:36.544Z,28.75
2022-09-09T17:27:04.850Z,28.02
2022-09-09T17:29:32.231Z,26.38
2022-09-09T17:31:59.522Z,26.48
2022-09-09T17:34:27.074Z,20.25
2022-09-09T17:36:54.431Z,19.95
2022-09-09T17:39:21.809Z,28.02
2022-09-09T17:41:50.097Z,19.60
2022-09-09T17:44:17.638Z,21.58
2022-09-09T17:46:46.579Z,31.88
2022-09-09T17:49:16.999Z,34.80
2022-09-09T17:51:46.977Z,29.38
2022-09-09T17:54:17.962Z,32.20
2022-09-09T17:56:46.501Z,21.20
2022-09-09T17:59:16.042Z,26.10
2022-09-09T18:01:46.809Z,29.58
2022-09-09T18:04:15.799Z,24.02
2022-09-09T18:06:46.883Z,24.58
2022-09-09T18:09:20.286Z,27.80
2022-09-09T18:11:50.308Z,29.52
2022-09-09T18:14:20.945Z,32.40
2022-09-09T18:16:48.472Z,38.10
2022-09-09T18:19:20.500Z,33.55
2022-09-09T18:21:49.541Z,30.73
2022-09-09T18:24:19.861Z,41.67
2022-09-09T18:26:48.601Z,47.55
2022-09-09T18:29:24.357Z,38.58
2022-09-09T18:31:53.555Z,35.42
2022-09-09T18:34:22.361Z,28.23
2022-09-09T18:36:55.416Z,32.33
2022-09-09T18:39:29.125Z,27.80
2022-09-09T18:42:04.296Z,40.80
2022-09-09T18:44:34.402Z,33.83
2022-09-09T18:47:04.782Z,35.15
2022-09-09T18:49:33.563Z,39.55
2022-09-09T18:52:02.560Z,38.95
2022-09-09T18:54:31.593Z,30.77
2022-09-09T18:57:01.110Z,32.30
2022-09-09T18:59:29.281Z,34.53
2022-09-09T19:01:57.327Z,36.13
2022-09-09T19:04:27.703Z,33.15
2022-09-09T19:06:58.360Z,31.02
2022-09-09T19:09:29.654Z,33.35
2022-09-09T19:11:57.706Z,35.42
2022-09-09T19:14:27.618Z,37.35
2022-09-09T19:16:55.742Z,42.53
2022-09-09T19:19:27.278Z,30.00
2022-09-09T19:21:58.064Z,37.22
2022-09-09T19:24:28.699Z,40.83
2022-09-09T19:27:00.352Z,39.65
2022-09-09T19:29:30.297Z,32.88
2022-09-09T19:34:47.307Z,38.13
2022-09-09T19:37:18.142Z,31.75
2022-09-09T19:39:47.143Z,36.17
2022-09-09T19:42:15.501Z,33.80
2022-09-09T19:44:42.972Z,28.30
2022-09-09T19:47:10.305Z,35.60
2022-09-09T19:49:37.547Z,25.80
2022-09-09T19:52:05.142Z,30.63
2022-09-09T19:54:33.145Z,26.77
2022-09-09T19:57:01.424Z,26.67
2022-09-09T19:59:28.958Z,27.35
2022-09-09T20:01:57.170Z,32.88
2022-09-09T20:04:25.149Z,30.10
2022-09-09T20:06:53.394Z,25.83
2022-09-09T20:09:21.724Z,29.48
2022-09-09T20:11:50.251Z,27.23
2022-09-09T20:14:18.565Z,26.77
2022-09-09T20:16:46.673Z,22.30
2022-09-09T20:19:16.785Z,29.45
2022-09-09T20:21:48.155Z,23.60
2022-09-09T20:24:18.680Z,23.55
2022-09-09T20:26:48.407Z,29.17
2022-09-09T20:29:17.904Z,24.70
2022-09-09T20:31:45.868Z,30.95
2022-09-09T20:34:19.054Z,28.30
2022-09-09T20:36:46.886Z,24.83
2022-09-09T20:39:16.955Z,20.67
2022-09-09T20:41:46.263Z,21.63
2022-09-09T20:44:16.687Z,26.45
2022-09-09T20:46:49.521Z,24.50
2022-09-09T20:49:20.204Z,25.58
2022-09-09T20:51:49.911Z,26.30
2022-09-09T20:54:23.664Z,28.33
2022-09-09T20:56:52.950Z,29.33
2022-09-09T20:59:25.156Z,22.73
2022-09-09T21:01:53.765Z,21.80
2022-09-09T21:04:22.468Z,25.15
2022-09-09T21:06:53.669Z,30.58
2022-09-09T21:09:24.744Z,27.30
2022-09-09T21:11:53.947Z,23.75
2022-09-09T21:14:22.421Z,21.63
2022-09-09T21:16:50.994Z,23.73
2022-09-09T21:19:18.924Z,26.42
2022-09-09T21:21:48.131Z,27.85
2022-09-09T21:24:16.649Z,39.80
2022-09-09T21:26:43.911Z,32.17
2022-09-09T21:29:13.988Z,31.70
2022-09-09T21:31:41.470Z,19.17
2022-09-09T21:34:10.050Z,28.30
2022-09-09T21:36:37.489Z,28.42
2022-09-09T21:39:05.382Z,32.03
2022-09-09T21:41:32.673Z,25.30
2022-09-09T21:44:00.608Z,29.00
2022-09-09T21:46:28.484Z,28.85
2022-09-09T21:48:58.915Z,32.03
2022-09-09T21:51:26.218Z,32.58
2022-09-09T21:53:56.300Z,29.25
2022-09-09T21:56:23.967Z,26.25
2022-09-09T21:58:57.076Z,29.50
2022-09-09T22:01:25.102Z,27.45
2022-09-09T22:03:52.840Z,24.63
2022-09-09T22:06:20.675Z,35.55
2022-09-09T22:08:48.254Z,22.42
2022-09-09T22:11:19.106Z,21.95
2022-09-09T22:13:46.534Z,26.55
2022-09-09T22:16:17.765Z,29.42
2022-09-09T22:18:50.656Z,26.48
2022-09-09T22:21:19.230Z,25.02
2022-09-09T22:23:53.649Z,22.35
2022-09-09T22:26:21.684Z,24.65
2022-09-09T22:28:49.531Z,29.80
2022-09-09T22:31:16.962Z,27.88
2022-09-09T22:33:44.406Z,28.85
2022-09-09T22:36:11.754Z,25.30
2022-09-09T22:38:39.476Z,22.48
2022-09-09T22:41:08.844Z,21.17
2022-09-09T22:43:36.864Z,22.13
2022-09-09T22:46:04.797Z,22.48
2022-09-09T22:48:33.756Z,26.33
2022-09-09T22:51:07.880Z,26.35
2022-09-09T22:53:37.579Z,26.95
2022-09-09T22:56:07.905Z,24.90
2022-09-09T22:58:37.635Z,27.30
2022-09-09T23:01:18.236Z,24.27
2022-09-09T23:03:49.328Z,31.20
2022-09-09T23:06:24.742Z,37.20
2022-09-09T23:08:58.176Z,34.63
2022-09-09T23:11:31.853Z,37.38
2022-09-09T23:14:03.134Z,34.45
2022-09-09T23:16:37.300Z,28.50
2022-09-09T23:19:05.416Z,30.20
2022-09-09T23:21:32.819Z,33.25
2022-09-09T23:24:00.963Z,30.37
2022-09-09T23:26:30.088Z,29.65
2022-09-09T23:28:59.092Z,28.05
2022-09-09T23:31:29.451Z,27.27
2022-09-09T23:33:58.323Z,27.55
2022-09-09T23:36:26.432Z,34.15
2022-09-09T23:38:56.496Z,22.90
2022-09-09T23:41:24.121Z,26.88
2022-09-09T23:43:53.328Z,23.92
2022-09-09T23:46:23.900Z,26.52
2022-09-09T23:48:51.990Z,27.80
2022-09-09T23:51:24.210Z,26.08
2022-09-09T23:53:53.920Z,24.75
2022-09-09T23:56:23.497Z,28.08
2022-09-09T23:58:52.002Z,25.20
